sensor_id;sensor_type;location;lat;lon;timestamp;P1;durP1;ratioP1;P2;durP2;ratioP2
28836;SDS011;50669;50.982;11.022;2023-02-03T00:01:49;8.13;;;4.47;;
28836;SDS011;50669;50.982;11.022;2023-02-03T00:04:15;8.27;;;4.85;;
28836;SDS011;50669;50.982;11.022;2023-02-03T00:06:41;8.88;;;5.00;;
28836;SDS011;50669;50.982;11.022;2023-02-03T00:09:07;8.82;;;5.30;;
28836;SDS011;50669;50.982;11.022;2023-02-03T00:11:33;9.00;;;5.32;;
28836;SDS011;50669;50.982;11.022;2023-02-03T00:13:59;10.95;;;5.72;;
28836;SDS011;50669;50.982;11.022;2023-02-03T00:16:29;9.98;;;5.28;;
28836;SDS011;50669;50.982;11.022;2023-02-03T00:18:55;8.55;;;5.35;;
28836;SDS011;50669;50.982;11.022;2023-02-03T00:21:21;10.55;;;6.20;;
28836;SDS011;50669;50.982;11.022;2023-02-03T00:23:46;10.23;;;6.07;;
28836;SDS011;50669;50.982;11.022;2023-02-03T00:26:13;8.65;;;6.00;;
28836;SDS011;50669;50.982;11.022;2023-02-03T00:28:44;10.98;;;5.93;;
28836;SDS011;50669;50.982;11.022;2023-02-03T00:31:16;8.95;;;6.10;;
28836;SDS011;50669;50.982;11.022;2023-02-03T00:33:43;9.18;;;6.20;;
28836;SDS011;50669;50.982;11.022;2023-02-03T00:36:09;8.10;;;5.60;;
28836;SDS011;50669;50.982;11.022;2023-02-03T00:38:35;7.60;;;4.85;;
28836;SDS011;50669;50.982;11.022;2023-02-03T00:41:05;7.90;;;4.80;;
28836;SDS011;50669;50.982;11.022;2023-02-03T00:43:34;7.18;;;4.57;;
28836;SDS011;50669;50.982;11.022;2023-02-03T00:45:59;6.13;;;4.30;;
28836;SDS011;50669;50.982;11.022;2023-02-03T00:48:25;6.70;;;4.13;;
28836;SDS011;50669;50.982;11.022;2023-02-03T00:50:51;6.00;;;3.60;;
28836;SDS011;50669;50.982;11.022;2023-02-03T00:53:16;5.80;;;3.67;;
28836;SDS011;50669;50.982;11.022;2023-02-03T00:55:42;5.57;;;3.25;;
28836;SDS011;50669;50.982;11.022;2023-02-03T00:58:08;6.03;;;3.78;;
28836;SDS011;50669;50.982;11.022;2023-02-03T01:00:34;5.20;;;3.38;;
28836;SDS011;50669;50.982;11.022;2023-02-03T01:02:59;4.97;;;3.60;;
28836;SDS011;50669;50.982;11.022;2023-02-03T01:05:25;5.18;;;3.80;;
28836;SDS011;50669;50.982;11.022;2023-02-03T01:07:53;4.75;;;3.38;;
28836;SDS011;50669;50.982;11.022;2023-02-03T01:10:19;5.50;;;3.75;;
28836;SDS011;50669;50.982;11.022;2023-02-03T01:12:47;5.72;;;3.50;;
28836;SDS011;50669;50.982;11.022;2023-02-03T01:15:12;5.97;;;3.35;;
28836;SDS011;50669;50.982;11.022;2023-02-03T01:17:38;6.05;;;3.80;;
28836;SDS011;50669;50.982;11.022;2023-02-03T01:20:06;5.88;;;3.88;;
28836;SDS011;50669;50.982;11.022;2023-02-03T01:22:32;6.65;;;4.78;;
28836;SDS011;50669;50.982;11.022;2023-02-03T01:24:57;6.20;;;3.50;;
28836;SDS011;50669;50.982;11.022;2023-02-03T01:27:23;7.70;;;4.35;;
28836;SDS011;50669;50.982;11.022;2023-02-03T01:29:49;6.60;;;4.18;;
28836;SDS011;50669;50.982;11.022;2023-02-03T01:32:17;7.15;;;4.60;;
28836;SDS011;50669;50.982;11.022;2023-02-03T01:34:45;7.13;;;4.68;;
28836;SDS011;50669;50.982;11.022;2023-02-03T01:37:11;7.65;;;4.97;;
28836;SDS011;50669;50.982;11.022;2023-02-03T01:39:38;8.25;;;5.15;;
28836;SDS011;50669;50.982;11.022;2023-02-03T01:42:04;8.82;;;5.10;;
28836;SDS011;50669;50.982;11.022;2023-02-03T01:47:01;10.40;;;6.05;;
28836;SDS011;50669;50.982;11.022;2023-02-03T01:49:36;11.15;;;6.95;;
28836;SDS011;50669;50.982;11.022;2023-02-03T01:52:02;11.57;;;6.95;;
28836;SDS011;50669;50.982;11.022;2023-02-03T01:54:32;11.32;;;7.38;;
28836;SDS011;50669;50.982;11.022;2023-02-03T01:57:03;13.52;;;7.07;;
28836;SDS011;50669;50.982;11.022;2023-02-03T01:59:35;12.48;;;7.75;;
28836;SDS011;50669;50.982;11.022;2023-02-03T02:02:02;10.55;;;6.25;;
28836;SDS011;50669;50.982;11.022;2023-02-03T02:04:35;10.98;;;7.30;;
28836;SDS011;50669;50.982;11.022;2023-02-03T02:07:22;13.15;;;7.72;;
28836;SDS011;50669;50.982;11.022;2023-02-03T02:09:49;11.38;;;7.50;;
28836;SDS011;50669;50.982;11.022;2023-02-03T02:12:15;13.07;;;7.38;;
28836;SDS011;50669;50.982;11.022;2023-02-03T02:14:40;9.82;;;6.18;;
28836;SDS011;50669;50.982;11.022;2023-02-03T02:45:56;13.25;;;7.70;;
28836;SDS011;50669;50.982;11.022;2023-02-03T02:51:10;14.70;;;8.30;;
28836;SDS011;50669;50.982;11.022;2023-02-03T02:53:45;13.30;;;9.25;;
28836;SDS011;50669;50.982;11.022;2023-02-03T02:56:16;12.52;;;8.35;;
28836;SDS011;50669;50.982;11.022;2023-02-03T02:58:47;11.15;;;7.97;;
28836;SDS011;50669;50.982;11.022;2023-02-03T03:01:16;11.43;;;7.75;;
28836;SDS011;50669;50.982;11.022;2023-02-03T03:03:43;12.80;;;7.80;;
28836;SDS011;50669;50.982;11.022;2023-02-03T03:06:12;11.55;;;7.43;;
28836;SDS011;50669;50.982;11.022;2023-02-03T03:09:03;9.80;;;7.38;;
28836;SDS011;50669;50.982;11.022;2023-02-03T03:11:42;16.35;;;7.68;;
28836;SDS011;50669;50.982;11.022;2023-02-03T03:14:13;13.05;;;8.30;;
28836;SDS011;50669;50.982;11.022;2023-02-03T03:16:43;11.63;;;8.05;;
28836;SDS011;50669;50.982;11.022;2023-02-03T03:19:19;11.48;;;7.68;;
28836;SDS011;50669;50.982;11.022;2023-02-03T03:21:56;12.32;;;7.80;;
28836;SDS011;50669;50.982;11.022;2023-02-03T03:24:37;15.32;;;8.77;;
28836;SDS011;50669;50.982;11.022;2023-02-03T03:27:20;16.05;;;8.88;;
28836;SDS011;50669;50.982;11.022;2023-02-03T03:29:52;13.68;;;8.65;;
28836;SDS011;50669;50.982;11.022;2023-02-03T03:32:26;12.75;;;8.77;;
28836;SDS011;50669;50.982;11.022;2023-02-03T03:34:54;14.95;;;8.30;;
28836;SDS011;50669;50.982;11.022;2023-02-03T03:42:27;13.25;;;8.05;;
28836;SDS011;50669;50.982;11.022;2023-02-03T03:47:34;11.30;;;7.72;;
28836;SDS011;50669;50.982;11.022;2023-02-03T03:50:06;12.02;;;8.65;;
28836;SDS011;50669;50.982;11.022;2023-02-03T03:52:36;14.88;;;8.48;;
28836;SDS011;50669;50.982;11.022;2023-02-03T03:55:04;14.30;;;7.63;;
28836;SDS011;50669;50.982;11.022;2023-02-03T04:00:10;12.73;;;8.02;;
28836;SDS011;50669;50.982;11.022;2023-02-03T04:02:40;10.35;;;7.43;;
28836;SDS011;50669;50.982;11.022;2023-02-03T04:05:12;12.77;;;8.15;;
28836;SDS011;50669;50.982;11.022;2023-02-03T04:07:43;11.88;;;8.23;;
28836;SDS011;50669;50.982;11.022;2023-02-03T04:10:22;13.23;;;8.88;;
28836;SDS011;50669;50.982;11.022;2023-02-03T04:12:57;13.30;;;8.90;;
28836;SDS011;50669;50.982;11.022;2023-02-03T04:15:26;13.63;;;8.23;;
28836;SDS011;50669;50.982;11.022;2023-02-03T04:17:54;14.02;;;8.32;;
28836;SDS011;50669;50.982;11.022;2023-02-03T04:20:21;12.20;;;7.97;;
28836;SDS011;50669;50.982;11.022;2023-02-03T04:22:49;13.77;;;7.65;;
28836;SDS011;50669;50.982;11.022;2023-02-03T04:25:15;14.82;;;8.85;;
28836;SDS011;50669;50.982;11.022;2023-02-03T04:27:43;11.68;;;6.45;;
28836;SDS011;50669;50.982;11.022;2023-02-03T04:30:12;9.48;;;6.40;;
28836;SDS011;50669;50.982;11.022;2023-02-03T04:32:42;10.13;;;6.22;;
28836;SDS011;50669;50.982;11.022;2023-02-03T04:35:08;7.28;;;5.68;;
28836;SDS011;50669;50.982;11.022;2023-02-03T04:37:34;10.18;;;5.80;;
28836;SDS011;50669;50.982;11.022;2023-02-03T04:40:00;7.72;;;5.55;;
28836;SDS011;50669;50.982;11.022;2023-02-03T04:42:28;9.00;;;5.13;;
28836;SDS011;50669;50.982;11.022;2023-02-03T04:44:57;6.57;;;4.78;;
28836;SDS011;50669;50.982;11.022;2023-02-03T04:47:27;8.57;;;4.25;;
28836;SDS011;50669;50.982;11.022;2023-02-03T04:49:52;7.20;;;5.00;;
28836;SDS011;50669;50.982;11.022;2023-02-03T04:52:18;5.40;;;3.90;;
28836;SDS011;50669;50.982;11.022;2023-02-03T04:54:44;7.63;;;4.75;;
28836;SDS011;50669;50.982;11.022;2023-02-03T04:57:09;7.18;;;4.10;;
28836;SDS011;50669;50.982;11.022;2023-02-03T04:59:35;5.80;;;3.40;;
28836;SDS011;50669;50.982;11.022;2023-02-03T05:02:01;6.60;;;3.63;;
28836;SDS011;50669;50.982;11.022;2023-02-03T05:04:30;4.30;;;3.47;;
28836;SDS011;50669;50.982;11.022;2023-02-03T05:06:56;3.85;;;3.28;;
28836;SDS011;50669;50.982;11.022;2023-02-03T05:09:22;4.15;;;3.05;;
28836;SDS011;50669;50.982;11.022;2023-02-03T05:11:51;5.97;;;3.25;;
28836;SDS011;50669;50.982;11.022;2023-02-03T05:14:17;7.03;;;3.22;;
28836;SDS011;50669;50.982;11.022;2023-02-03T05:16:42;3.42;;;3.13;;
28836;SDS011;50669;50.982;11.022;2023-02-03T05:19:10;4.47;;;3.33;;
28836;SDS011;50669;50.982;11.022;2023-02-03T05:21:36;6.05;;;3.80;;
28836;SDS011;50669;50.982;11.022;2023-02-03T05:24:01;6.07;;;4.07;;
28836;SDS011;50669;50.982;11.022;2023-02-03T05:26:30;5.40;;;4.22;;
28836;SDS011;50669;50.982;11.022;2023-02-03T05:28:59;8.52;;;4.43;;
28836;SDS011;50669;50.982;11.022;2023-02-03T05:31:25;8.30;;;4.75;;
28836;SDS011;50669;50.982;11.022;2023-02-03T05:33:53;6.63;;;4.35;;
28836;SDS011;50669;50.982;11.022;2023-02-03T05:36:19;6.70;;;3.97;;
28836;SDS011;50669;50.982;11.022;2023-02-03T05:38:45;8.85;;;4.65;;
28836;SDS011;50669;50.982;11.022;2023-02-03T05:41:13;7.60;;;4.70;;
28836;SDS011;50669;50.982;11.022;2023-02-03T05:43:59;9.05;;;4.60;;
28836;SDS011;50669;50.982;11.022;2023-02-03T05:46:27;8.38;;;4.57;;
28836;SDS011;50669;50.982;11.022;2023-02-03T05:48:53;6.70;;;4.50;;
28836;SDS011;50669;50.982;11.022;2023-02-03T05:51:21;5.93;;;4.57;;
28836;SDS011;50669;50.982;11.022;2023-02-03T05:53:47;5.38;;;4.35;;
28836;SDS011;50669;50.982;11.022;2023-02-03T05:56:15;7.65;;;4.57;;
28836;SDS011;50669;50.982;11.022;2023-02-03T05:58:41;7.65;;;4.88;;
28836;SDS011;50669;50.982;11.022;2023-02-03T06:01:06;9.07;;;4.80;;
28836;SDS011;50669;50.982;11.022;2023-02-03T06:03:35;7.25;;;5.20;;
28836;SDS011;50669;50.982;11.022;2023-02-03T06:06:03;6.85;;;4.70;;
28836;SDS011;50669;50.982;11.022;2023-02-03T06:08:31;5.95;;;4.45;;
28836;SDS011;50669;50.982;11.022;2023-02-03T06:10:59;5.88;;;4.53;;
28836;SDS011;50669;50.982;11.022;2023-02-03T06:13:27;6.80;;;4.60;;
28836;SDS011;50669;50.982;11.022;2023-02-03T06:15:53;8.10;;;4.63;;
28836;SDS011;50669;50.982;11.022;2023-02-03T06:18:21;6.57;;;4.32;;
28836;SDS011;50669;50.982;11.022;2023-02-03T06:20:49;8.45;;;4.85;;
28836;SDS011;50669;50.982;11.022;2023-02-03T06:23:15;8.00;;;4.47;;
28836;SDS011;50669;50.982;11.022;2023-02-03T06:25:44;16.60;;;5.40;;
28836;SDS011;50669;50.982;11.022;2023-02-03T06:28:14;7.32;;;5.20;;
28836;SDS011;50669;50.982;11.022;2023-02-03T06:30:40;9.30;;;5.15;;
28836;SDS011;50669;50.982;11.022;2023-02-03T06:33:06;7.53;;;4.40;;
28836;SDS011;50669;50.982;11.022;2023-02-03T06:35:31;8.25;;;3.78;;
28836;SDS011;50669;50.982;11.022;2023-02-03T06:37:59;6.50;;;4.30;;
28836;SDS011;50669;50.982;11.022;2023-02-03T06:40:25;5.80;;;3.47;;
28836;SDS011;50669;50.982;11.022;2023-02-03T06:42:53;5.97;;;3.95;;
28836;SDS011;50669;50.982;11.022;2023-02-03T06:45:19;6.95;;;4.22;;
28836;SDS011;50669;50.982;11.022;2023-02-03T06:47:46;6.65;;;4.05;;
28836;SDS011;50669;50.982;11.022;2023-02-03T06:50:14;6.10;;;3.95;;
28836;SDS011;50669;50.982;11.022;2023-02-03T06:52:40;8.18;;;4.35;;
28836;SDS011;50669;50.982;11.022;2023-02-03T06:55:08;8.38;;;5.30;;
28836;SDS011;50669;50.982;11.022;2023-02-03T06:57:46;9.45;;;4.63;;
28836;SDS011;50669;50.982;11.022;2023-02-03T07:00:14;6.50;;;3.83;;
28836;SDS011;50669;50.982;11.022;2023-02-03T07:02:41;8.45;;;4.25;;
28836;SDS011;50669;50.982;11.022;2023-02-03T07:05:07;6.40;;;4.28;;
28836;SDS011;50669;50.982;11.022;2023-02-03T07:07:33;7.22;;;4.07;;
28836;SDS011;50669;50.982;11.022;2023-02-03T07:09:59;5.28;;;3.72;;
28836;SDS011;50669;50.982;11.022;2023-02-03T07:12:29;5.88;;;3.50;;
28836;SDS011;50669;50.982;11.022;2023-02-03T07:14:55;4.13;;;3.10;;
28836;SDS011;50669;50.982;11.022;2023-02-03T07:17:21;6.63;;;3.20;;
28836;SDS011;50669;50.982;11.022;2023-02-03T07:19:47;6.00;;;3.67;;
28836;SDS011;50669;50.982;11.022;2023-02-03T07:22:12;5.35;;;3.55;;
28836;SDS011;50669;50.982;11.022;2023-02-03T07:24:38;4.00;;;3.20;;
28836;SDS011;50669;50.982;11.022;2023-02-03T07:27:04;5.90;;;3.80;;
28836;SDS011;50669;50.982;11.022;2023-02-03T07:29:31;7.82;;;3.50;;
28836;SDS011;50669;50.982;11.022;2023-02-03T07:31:57;7.00;;;3.65;;
28836;SDS011;50669;50.982;11.022;2023-02-03T07:34:23;6.55;;;3.33;;
28836;SDS011;50669;50.982;11.022;2023-02-03T07:36:51;6.97;;;3.35;;
28836;SDS011;50669;50.982;11.022;2023-02-03T07:39:16;4.72;;;3.30;;
28836;SDS011;50669;50.982;11.022;2023-02-03T07:41:42;7.53;;;3.55;;
28836;SDS011;50669;50.982;11.022;2023-02-03T07:44:10;5.60;;;3.50;;
28836;SDS011;50669;50.982;11.022;2023-02-03T07:46:40;5.00;;;3.70;;
28836;SDS011;50669;50.982;11.022;2023-02-03T07:49:11;7.40;;;3.35;;
28836;SDS011;50669;50.982;11.022;2023-02-03T07:51:37;7.15;;;3.55;;
28836;SDS011;50669;50.982;11.022;2023-02-03T07:54:05;5.80;;;3.30;;
28836;SDS011;50669;50.982;11.022;2023-02-03T07:56:31;5.88;;;3.63;;
28836;SDS011;50669;50.982;11.022;2023-02-03T07:58:58;7.22;;;3.45;;
28836;SDS011;50669;50.982;11.022;2023-02-03T08:01:23;6.60;;;3.15;;
28836;SDS011;50669;50.982;11.022;2023-02-03T08:03:50;7.95;;;3.72;;
28836;SDS011;50669;50.982;11.022;2023-02-03T08:06:15;6.88;;;3.67;;
28836;SDS011;50669;50.982;11.022;2023-02-03T08:08:41;9.43;;;4.32;;
28836;SDS011;50669;50.982;11.022;2023-02-03T08:11:07;5.07;;;3.00;;
28836;SDS011;50669;50.982;11.022;2023-02-03T08:13:33;6.07;;;3.50;;
28836;SDS011;50669;50.982;11.022;2023-02-03T08:16:01;6.63;;;3.55;;
28836;SDS011;50669;50.982;11.022;2023-02-03T08:18:27;7.28;;;4.05;;
28836;SDS011;50669;50.982;11.022;2023-02-03T08:20:53;6.28;;;3.90;;
28836;SDS011;50669;50.982;11.022;2023-02-03T08:23:21;8.07;;;3.72;;
28836;SDS011;50669;50.982;11.022;2023-02-03T08:25:50;6.78;;;3.78;;
28836;SDS011;50669;50.982;11.022;2023-02-03T08:28:17;7.35;;;4.22;;
28836;SDS011;50669;50.982;11.022;2023-02-03T08:30:44;6.30;;;3.05;;
28836;SDS011;50669;50.982;11.022;2023-02-03T08:33:10;5.28;;;3.40;;
28836;SDS011;50669;50.982;11.022;2023-02-03T08:35:38;6.20;;;3.28;;
28836;SDS011;50669;50.982;11.022;2023-02-03T08:38:06;8.05;;;3.50;;
28836;SDS011;50669;50.982;11.022;2023-02-03T08:40:32;6.80;;;3.40;;
28836;SDS011;50669;50.982;11.022;2023-02-03T08:42:58;6.75;;;3.47;;
28836;SDS011;50669;50.982;11.022;2023-02-03T08:45:23;8.32;;;3.28;;
28836;SDS011;50669;50.982;11.022;2023-02-03T08:47:54;5.40;;;3.83;;
28836;SDS011;50669;50.982;11.022;2023-02-03T08:50:19;6.55;;;3.50;;
28836;SDS011;50669;50.982;11.022;2023-02-03T08:52:48;6.88;;;3.42;;
28836;SDS011;50669;50.982;11.022;2023-02-03T08:55:16;6.53;;;3.40;;
28836;SDS011;50669;50.982;11.022;2023-02-03T08:57:41;7.95;;;3.58;;
28836;SDS011;50669;50.982;11.022;2023-02-03T09:00:10;6.20;;;3.30;;
28836;SDS011;50669;50.982;11.022;2023-02-03T09:02:36;7.40;;;3.45;;
28836;SDS011;50669;50.982;11.022;2023-02-03T09:05:01;5.88;;;3.40;;
28836;SDS011;50669;50.982;11.022;2023-02-03T09:07:27;6.43;;;3.55;;
28836;SDS011;50669;50.982;11.022;2023-02-03T09:09:55;6.65;;;3.30;;
28836;SDS011;50669;50.982;11.022;2023-02-03T09:12:20;5.43;;;3.55;;
28836;SDS011;50669;50.982;11.022;2023-02-03T09:14:46;6.00;;;2.97;;
28836;SDS011;50669;50.982;11.022;2023-02-03T09:17:12;6.05;;;3.67;;
28836;SDS011;50669;50.982;11.022;2023-02-03T09:19:37;6.93;;;3.10;;
28836;SDS011;50669;50.982;11.022;2023-02-03T09:22:05;5.93;;;3.22;;
28836;SDS011;50669;50.982;11.022;2023-02-03T09:24:31;6.70;;;2.97;;
28836;SDS011;50669;50.982;11.022;2023-02-03T09:26:59;4.57;;;3.10;;
28836;SDS011;50669;50.982;11.022;2023-02-03T09:29:25;10.07;;;3.72;;
28836;SDS011;50669;50.982;11.022;2023-02-03T09:31:53;4.45;;;2.90;;
28836;SDS011;50669;50.982;11.022;2023-02-03T09:34:20;3.50;;;2.78;;
28836;SDS011;50669;50.982;11.022;2023-02-03T09:36:46;4.82;;;3.20;;
28836;SDS011;50669;50.982;11.022;2023-02-03T09:39:12;4.90;;;2.63;;
28836;SDS011;50669;50.982;11.022;2023-02-03T09:47:15;3.75;;;2.38;;
28836;SDS011;50669;50.982;11.022;2023-02-03T09:49:51;3.90;;;2.70;;
28836;SDS011;50669;50.982;11.022;2023-02-03T09:52:27;3.88;;;2.45;;
28836;SDS011;50669;50.982;11.022;2023-02-03T09:57:36;4.82;;;2.15;;
28836;SDS011;50669;50.982;11.022;2023-02-03T10:00:31;6.30;;;2.15;;
28836;SDS011;50669;50.982;11.022;2023-02-03T10:19:27;2.83;;;2.15;;
28836;SDS011;50669;50.982;11.022;2023-02-03T10:22:03;3.17;;;2.10;;
28836;SDS011;50669;50.982;11.022;2023-02-03T10:24:41;3.17;;;2.00;;
28836;SDS011;50669;50.982;11.022;2023-02-03T10:27:16;2.50;;;1.70;;
28836;SDS011;50669;50.982;11.022;2023-02-03T10:29:44;2.20;;;1.70;;
28836;SDS011;50669;50.982;11.022;2023-02-03T10:32:26;2.42;;;1.60;;
28836;SDS011;50669;50.982;11.022;2023-02-03T10:34:54;1.80;;;1.48;;
28836;SDS011;50669;50.982;11.022;2023-02-03T10:40:15;2.40;;;1.80;;
28836;SDS011;50669;50.982;11.022;2023-02-03T10:42:42;3.20;;;1.45;;
28836;SDS011;50669;50.982;11.022;2023-02-03T10:45:30;3.30;;;1.48;;
28836;SDS011;50669;50.982;11.022;2023-02-03T10:48:01;2.45;;;1.92;;
28836;SDS011;50669;50.982;11.022;2023-02-03T10:50:28;2.97;;;1.40;;
28836;SDS011;50669;50.982;11.022;2023-02-03T10:55:47;2.28;;;1.70;;
28836;SDS011;50669;50.982;11.022;2023-02-03T10:58:24;2.78;;;2.10;;
28836;SDS011;50669;50.982;11.022;2023-02-03T11:03:43;3.38;;;2.17;;
28836;SDS011;50669;50.982;11.022;2023-02-03T11:06:18;3.80;;;2.15;;
28836;SDS011;50669;50.982;11.022;2023-02-03T11:08:45;2.45;;;1.98;;
28836;SDS011;50669;50.982;11.022;2023-02-03T11:11:13;2.50;;;2.28;;
28836;SDS011;50669;50.982;11.022;2023-02-03T11:13:39;4.25;;;2.83;;
28836;SDS011;50669;50.982;11.022;2023-02-03T11:16:14;4.28;;;2.60;;
28836;SDS011;50669;50.982;11.022;2023-02-03T11:26:58;1.73;;;1.40;;
28836;SDS011;50669;50.982;11.022;2023-02-03T11:29:33;2.72;;;1.50;;
28836;SDS011;50669;50.982;11.022;2023-02-03T11:32:13;2.47;;;1.50;;
28836;SDS011;50669;50.982;11.022;2023-02-03T11:34:55;3.53;;;1.70;;
28836;SDS011;50669;50.982;11.022;2023-02-03T11:42:40;2.55;;;1.20;;
28836;SDS011;50669;50.982;11.022;2023-02-03T11:47:51;2.67;;;1.40;;
28836;SDS011;50669;50.982;11.022;2023-02-03T12:12:37;2.33;;;1.23;;
28836;SDS011;50669;50.982;11.022;2023-02-03T12:20:40;4.32;;;1.65;;
28836;SDS011;50669;50.982;11.022;2023-02-03T12:31:35;2.92;;;1.67;;
28836;SDS011;50669;50.982;11.022;2023-02-03T12:34:05;2.95;;;1.70;;
28836;SDS011;50669;50.982;11.022;2023-02-03T12:36:44;2.20;;;1.38;;
28836;SDS011;50669;50.982;11.022;2023-02-03T12:39:24;2.55;;;1.55;;
28836;SDS011;50669;50.982;11.022;2023-02-03T12:42:14;2.60;;;1.40;;
28836;SDS011;50669;50.982;11.022;2023-02-03T12:44:56;3.30;;;1.65;;
28836;SDS011;50669;50.982;11.022;2023-02-03T12:50:17;2.13;;;1.40;;
28836;SDS011;50669;50.982;11.022;2023-02-03T12:55:21;1.50;;;1.38;;
28836;SDS011;50669;50.982;11.022;2023-02-03T12:57:59;1.70;;;1.50;;
28836;SDS011;50669;50.982;11.022;2023-02-03T13:06:01;3.45;;;1.58;;
28836;SDS011;50669;50.982;11.022;2023-02-03T13:08:38;3.05;;;1.65;;
28836;SDS011;50669;50.982;11.022;2023-02-03T13:13:59;3.35;;;1.60;;
28836;SDS011;50669;50.982;11.022;2023-02-03T13:16:32;2.60;;;1.60;;
28836;SDS011;50669;50.982;11.022;2023-02-03T13:19:04;3.70;;;2.30;;
28836;SDS011;50669;50.982;11.022;2023-02-03T13:21:35;1.90;;;1.40;;
28836;SDS011;50669;50.982;11.022;2023-02-03T13:24:02;3.33;;;2.03;;
28836;SDS011;50669;50.982;11.022;2023-02-03T13:39:51;3.33;;;1.77;;
28836;SDS011;50669;50.982;11.022;2023-02-03T13:42:27;4.00;;;1.55;;
28836;SDS011;50669;50.982;11.022;2023-02-03T13:44:56;3.88;;;1.40;;
28836;SDS011;50669;50.982;11.022;2023-02-03T13:47:24;2.97;;;1.60;;
28836;SDS011;50669;50.982;11.022;2023-02-03T13:49:54;2.47;;;1.42;;
28836;SDS011;50669;50.982;11.022;2023-02-03T13:52:29;3.97;;;1.40;;
28836;SDS011;50669;50.982;11.022;2023-02-03T13:55:01;4.15;;;1.20;;
28836;SDS011;50669;50.982;11.022;2023-02-03T13:57:32;3.50;;;0.90;;
28836;SDS011;50669;50.982;11.022;2023-02-03T14:00:02;6.25;;;1.20;;
28836;SDS011;50669;50.982;11.022;2023-02-03T14:02:41;6.18;;;1.27;;
28836;SDS011;50669;50.982;11.022;2023-02-03T14:16:39;10.25;;;1.95;;
28836;SDS011;50669;50.982;11.022;2023-02-03T14:19:09;9.25;;;1.80;;
28836;SDS011;50669;50.982;11.022;2023-02-03T14:21:37;10.77;;;1.75;;
28836;SDS011;50669;50.982;11.022;2023-02-03T14:24:13;11.65;;;1.85;;
28836;SDS011;50669;50.982;11.022;2023-02-03T14:31:59;12.43;;;2.30;;
28836;SDS011;50669;50.982;11.022;2023-02-03T14:37:02;11.82;;;1.80;;
28836;SDS011;50669;50.982;11.022;2023-02-03T14:53:32;8.02;;;1.98;;
28836;SDS011;50669;50.982;11.022;2023-02-03T14:58:35;13.63;;;2.72;;
28836;SDS011;50669;50.982;11.022;2023-02-03T15:01:10;15.00;;;2.65;;
28836;SDS011;50669;50.982;11.022;2023-02-03T15:06:37;11.82;;;3.92;;
28836;SDS011;50669;50.982;11.022;2023-02-03T15:09:53;14.05;;;3.05;;
28836;SDS011;50669;50.982;11.022;2023-02-03T15:11:56;20.15;;;5.75;;
28836;SDS011;50669;50.982;11.022;2023-02-03T15:14:30;13.95;;;3.65;;
28836;SDS011;50669;50.982;11.022;2023-02-03T15:16:57;14.88;;;3.90;;
28836;SDS011;50669;50.982;11.022;2023-02-03T15:19:27;15.82;;;3.97;;
28836;SDS011;50669;50.982;11.022;2023-02-03T15:21:56;13.82;;;2.75;;
28836;SDS011;50669;50.982;11.022;2023-02-03T15:24:22;15.73;;;2.75;;
28836;SDS011;50669;50.982;11.022;2023-02-03T15:26:53;15.77;;;3.47;;
28836;SDS011;50669;50.982;11.022;2023-02-03T15:29:31;12.65;;;3.00;;
28836;SDS011;50669;50.982;11.022;2023-02-03T15:34:32;15.20;;;3.00;;
28836;SDS011;50669;50.982;11.022;2023-02-03T15:37:02;11.95;;;2.50;;
28836;SDS011;50669;50.982;11.022;2023-02-03T15:42:08;17.08;;;3.65;;
28836;SDS011;50669;50.982;11.022;2023-02-03T15:44:57;20.65;;;4.28;;
28836;SDS011;50669;50.982;11.022;2023-02-03T15:52:46;14.82;;;3.28;;
28836;SDS011;50669;50.982;11.022;2023-02-03T15:55:19;18.02;;;4.50;;
28836;SDS011;50669;50.982;11.022;2023-02-03T15:57:48;18.55;;;3.97;;
28836;SDS011;50669;50.982;11.022;2023-02-03T16:00:57;12.23;;;2.83;;
28836;SDS011;50669;50.982;11.022;2023-02-03T16:03:05;9.13;;;2.75;;
28836;SDS011;50669;50.982;11.022;2023-02-03T16:05:43;10.25;;;2.65;;
28836;SDS011;50669;50.982;11.022;2023-02-03T16:14:04;14.57;;;3.47;;
28836;SDS011;50669;50.982;11.022;2023-02-03T16:19:13;14.00;;;3.33;;
28836;SDS011;50669;50.982;11.022;2023-02-03T16:21:43;15.88;;;2.95;;
28836;SDS011;50669;50.982;11.022;2023-02-03T16:35:50;23.15;;;2.35;;
28836;SDS011;50669;50.982;11.022;2023-02-03T16:38:37;9.65;;;2.25;;
28836;SDS011;50669;50.982;11.022;2023-02-03T16:41:29;13.25;;;3.10;;
28836;SDS011;50669;50.982;11.022;2023-02-03T16:44:16;14.85;;;3.17;;
28836;SDS011;50669;50.982;11.022;2023-02-03T16:47:02;13.77;;;2.50;;
28836;SDS011;50669;50.982;11.022;2023-02-03T16:49:49;12.82;;;2.70;;
28836;SDS011;50669;50.982;11.022;2023-02-03T16:52:33;16.02;;;2.75;;
28836;SDS011;50669;50.982;11.022;2023-02-03T16:54:58;13.20;;;2.03;;
28836;SDS011;50669;50.982;11.022;2023-02-03T16:57:24;11.48;;;2.65;;
28836;SDS011;50669;50.982;11.022;2023-02-03T16:59:50;9.95;;;2.90;;
28836;SDS011;50669;50.982;11.022;2023-02-03T17:02:15;12.95;;;2.53;;
28836;SDS011;50669;50.982;11.022;2023-02-03T17:04:41;19.77;;;2.85;;
28836;SDS011;50669;50.982;11.022;2023-02-03T17:07:07;11.95;;;2.60;;
28836;SDS011;50669;50.982;11.022;2023-02-03T17:09:33;18.02;;;3.40;;
28836;SDS011;50669;50.982;11.022;2023-02-03T17:12:01;10.98;;;2.80;;
28836;SDS011;50669;50.982;11.022;2023-02-03T17:14:27;15.27;;;3.28;;
28836;SDS011;50669;50.982;11.022;2023-02-03T17:16:56;14.00;;;3.60;;
28836;SDS011;50669;50.982;11.022;2023-02-03T17:19:22;13.23;;;2.97;;
28836;SDS011;50669;50.982;11.022;2023-02-03T17:21:52;15.50;;;3.17;;
28836;SDS011;50669;50.982;11.022;2023-02-03T17:24:20;13.75;;;3.25;;
28836;SDS011;50669;50.982;11.022;2023-02-03T17:26:46;11.88;;;3.00;;
28836;SDS011;50669;50.982;11.022;2023-02-03T17:29:14;13.25;;;2.78;;
28836;SDS011;50669;50.982;11.022;2023-02-03T17:31:40;14.77;;;3.08;;
28836;SDS011;50669;50.982;11.022;2023-02-03T17:34:05;18.05;;;4.05;;
28836;SDS011;50669;50.982;11.022;2023-02-03T17:36:31;15.95;;;3.20;;
28836;SDS011;50669;50.982;11.022;2023-02-03T17:38:58;13.85;;;3.17;;
28836;SDS011;50669;50.982;11.022;2023-02-03T17:41:24;13.48;;;2.58;;
28836;SDS011;50669;50.982;11.022;2023-02-03T17:43:52;15.27;;;2.42;;
28836;SDS011;50669;50.982;11.022;2023-02-03T17:46:22;15.43;;;3.08;;
28836;SDS011;50669;50.982;11.022;2023-02-03T17:48:51;15.98;;;2.53;;
28836;SDS011;50669;50.982;11.022;2023-02-03T17:51:18;15.15;;;3.65;;
28836;SDS011;50669;50.982;11.022;2023-02-03T17:53:50;11.48;;;3.15;;
28836;SDS011;50669;50.982;11.022;2023-02-03T17:56:20;19.20;;;2.83;;
28836;SDS011;50669;50.982;11.022;2023-02-03T17:58:55;13.75;;;2.97;;
28836;SDS011;50669;50.982;11.022;2023-02-03T18:01:24;12.57;;;2.85;;
28836;SDS011;50669;50.982;11.022;2023-02-03T18:03:51;13.65;;;2.78;;
28836;SDS011;50669;50.982;11.022;2023-02-03T18:06:19;16.30;;;2.50;;
28836;SDS011;50669;50.982;11.022;2023-02-03T18:08:46;13.80;;;2.55;;
28836;SDS011;50669;50.982;11.022;2023-02-03T18:11:13;11.55;;;2.67;;
28836;SDS011;50669;50.982;11.022;2023-02-03T18:13:43;18.40;;;3.33;;
28836;SDS011;50669;50.982;11.022;2023-02-03T18:16:14;23.67;;;3.00;;
28836;SDS011;50669;50.982;11.022;2023-02-03T18:18:49;15.43;;;2.80;;
28836;SDS011;50669;50.982;11.022;2023-02-03T18:21:17;14.65;;;3.42;;
28836;SDS011;50669;50.982;11.022;2023-02-03T18:23:43;14.15;;;2.70;;
28836;SDS011;50669;50.982;11.022;2023-02-03T18:26:10;16.90;;;2.83;;
28836;SDS011;50669;50.982;11.022;2023-02-03T18:28:36;12.30;;;2.42;;
28836;SDS011;50669;50.982;11.022;2023-02-03T18:31:07;11.98;;;2.58;;